sensor_id;sensor_type;location;lat;lon;timestamp;pressure;altitude;pressure_sealevel;temperature;humidity
9525;BME280;15940;48.734;9.112;2023-03-16T00:02:23;96903.97;;;0.00;89.15
9525;BME280;15940;48.734;9.112;2023-03-16T00:04:50;96908.19;;;0.41;90.19
9525;BME280;15940;48.734;9.112;2023-03-16T00:07:17;96912.19;;;0.69;90.08
9525;BME280;15940;48.734;9.112;2023-03-16T00:09:44;96908.16;;;0.80;89.80
9525;BME280;15940;48.734;9.112;2023-03-16T00:12:14;96905.06;;;0.82;89.22
9525;BME280;15940;48.734;9.112;2023-03-16T00:14:43;96906.19;;;1.01;87.92
9525;BME280;15940;48.734;9.112;2023-03-16T00:17:14;96905.69;;;0.70;88.19
9525;BME280;15940;48.734;9.112;2023-03-16T00:19:45;96899.91;;;0.91;87.76
9525;BME280;15940;48.734;9.112;2023-03-16T00:22:14;96897.34;;;0.88;87.47
9525;BME280;15940;48.734;9.112;2023-03-16T00:24:41;96892.75;;;0.88;87.25
9525;BME280;15940;48.734;9.112;2023-03-16T00:27:10;96897.84;;;0.99;87.77
9525;BME280;15940;48.734;9.112;2023-03-16T00:29:41;96889.94;;;0.95;86.87
9525;BME280;15940;48.734;9.112;2023-03-16T00:32:15;96899.88;;;1.11;87.73
9525;BME280;15940;48.734;9.112;2023-03-16T00:34:42;96905.72;;;1.22;85.71
9525;BME280;15940;48.734;9.112;2023-03-16T00:37:10;96905.22;;;1.27;85.75
9525;BME280;15940;48.734;9.112;2023-03-16T00:39:40;96905.22;;;1.27;85.53
9525;BME280;15940;48.734;9.112;2023-03-16T00:42:07;96910.66;;;1.24;85.57
9525;BME280;15940;48.734;9.112;2023-03-16T00:44:35;96910.06;;;1.16;85.40
9525;BME280;15940;48.734;9.112;2023-03-16T00:47:02;96909.38;;;1.12;86.03
9525;BME280;15940;48.734;9.112;2023-03-16T00:49:30;96903.09;;;0.86;84.71
9525;BME280;15940;48.734;9.112;2023-03-16T00:52:00;96906.56;;;0.83;86.45
9525;BME280;15940;48.734;9.112;2023-03-16T00:54:27;96897.59;;;0.57;87.04
9525;BME280;15940;48.734;9.112;2023-03-16T00:56:54;96896.47;;;0.54;88.12
9525;BME280;15940;48.734;9.112;2023-03-16T00:59:21;96895.66;;;0.57;87.69
9525;BME280;15940;48.734;9.112;2023-03-16T01:01:50;96886.81;;;0.80;87.11
9525;BME280;15940;48.734;9.112;2023-03-16T01:04:17;96901.66;;;0.81;86.73
9525;BME280;15940;48.734;9.112;2023-03-16T01:06:46;96892.44;;;0.66;85.44
9525;BME280;15940;48.734;9.112;2023-03-16T01:09:13;96894.50;;;0.59;88.13
9525;BME280;15940;48.734;9.112;2023-03-16T01:11:40;96885.91;;;0.87;87.51
9525;BME280;15940;48.734;9.112;2023-03-16T01:14:08;96891.44;;;0.96;86.32
9525;BME280;15940;48.734;9.112;2023-03-16T01:16:35;96886.34;;;1.02;85.43
9525;BME280;15940;48.734;9.112;2023-03-16T01:19:02;96886.78;;;1.00;84.83
9525;BME280;15940;48.734;9.112;2023-03-16T01:21:29;96894.03;;;1.00;85.87
9525;BME280;15940;48.734;9.112;2023-03-16T01:23:59;96894.81;;;1.17;85.03
9525;BME280;15940;48.734;9.112;2023-03-16T01:26:26;96890.94;;;1.01;84.51
9525;BME280;15940;48.734;9.112;2023-03-16T01:28:53;96895.84;;;0.87;84.95
9525;BME280;15940;48.734;9.112;2023-03-16T01:31:21;96896.19;;;0.69;85.65
9525;BME280;15940;48.734;9.112;2023-03-16T01:33:48;96892.59;;;0.39;85.19
9525;BME280;15940;48.734;9.112;2023-03-16T01:36:17;96893.19;;;0.07;85.47
9525;BME280;15940;48.734;9.112;2023-03-16T01:38:45;96888.53;;;-0.09;88.76
9525;BME280;15940;48.734;9.112;2023-03-16T01:41:14;96888.88;;;-0.07;89.87
9525;BME280;15940;48.734;9.112;2023-03-16T01:43:44;96891.09;;;-0.25;89.85
9525;BME280;15940;48.734;9.112;2023-03-16T01:46:24;96878.53;;;-0.24;89.00
9525;BME280;15940;48.734;9.112;2023-03-16T01:49:01;96885.34;;;-0.23;91.15
9525;BME280;15940;48.734;9.112;2023-03-16T01:51:35;96882.94;;;-0.38;89.58
9525;BME280;15940;48.734;9.112;2023-03-16T01:54:07;96881.25;;;-0.51;89.83
9525;BME280;15940;48.734;9.112;2023-03-16T01:56:41;96875.97;;;-0.32;92.63
9525;BME280;15940;48.734;9.112;2023-03-16T01:59:14;96878.41;;;-0.17;90.13
9525;BME280;15940;48.734;9.112;2023-03-16T02:01:42;96882.69;;;-0.23;90.21
9525;BME280;15940;48.734;9.112;2023-03-16T02:04:25;96872.41;;;-0.45;90.23
9525;BME280;15940;48.734;9.112;2023-03-16T02:06:56;96867.94;;;-0.51;91.36
9525;BME280;15940;48.734;9.112;2023-03-16T02:09:24;96867.13;;;-0.72;90.57
9525;BME280;15940;48.734;9.112;2023-03-16T02:11:54;96866.06;;;-0.78;91.09
9525;BME280;15940;48.734;9.112;2023-03-16T02:14:21;96861.94;;;-0.55;92.21
9525;BME280;15940;48.734;9.112;2023-03-16T02:16:49;96863.31;;;-0.71;91.37
9525;BME280;15940;48.734;9.112;2023-03-16T02:19:28;96858.88;;;-0.54;92.38
9525;BME280;15940;48.734;9.112;2023-03-16T02:22:02;96857.78;;;-0.56;92.65
9525;BME280;15940;48.734;9.112;2023-03-16T02:24:30;96846.50;;;-0.64;92.75
9525;BME280;15940;48.734;9.112;2023-03-16T02:27:01;96854.31;;;-0.53;92.66
9525;BME280;15940;48.734;9.112;2023-03-16T02:29:51;96854.72;;;-0.55;92.84
9525;BME280;15940;48.734;9.112;2023-03-16T02:32:21;96860.13;;;-0.15;94.40
9525;BME280;15940;48.734;9.112;2023-03-16T02:34:49;96863.94;;;-0.16;93.20
9525;BME280;15940;48.734;9.112;2023-03-16T02:37:16;96864.88;;;-0.50;91.45
9525;BME280;15940;48.734;9.112;2023-03-16T02:39:43;96854.25;;;-0.73;92.33
9525;BME280;15940;48.734;9.112;2023-03-16T02:42:13;96854.06;;;-0.63;93.15
9525;BME280;15940;48.734;9.112;2023-03-16T02:44:46;96851.00;;;-0.61;93.91
9525;BME280;15940;48.734;9.112;2023-03-16T02:47:21;96853.78;;;-0.45;94.16
9525;BME280;15940;48.734;9.112;2023-03-16T02:49:50;96855.34;;;-0.71;92.51
9525;BME280;15940;48.734;9.112;2023-03-16T02:52:17;96849.03;;;-0.57;93.96
9525;BME280;15940;48.734;9.112;2023-03-16T02:54:44;96834.63;;;-0.36;93.81
9525;BME280;15940;48.734;9.112;2023-03-16T02:57:11;96841.91;;;-0.40;93.88
9525;BME280;15940;48.734;9.112;2023-03-16T02:59:37;96839.13;;;-0.33;92.81
9525;BME280;15940;48.734;9.112;2023-03-16T03:02:06;96842.97;;;-0.81;91.58
9525;BME280;15940;48.734;9.112;2023-03-16T03:04:33;96839.72;;;-0.92;92.54
9525;BME280;15940;48.734;9.112;2023-03-16T03:07:00;96844.38;;;-1.00;93.20
9525;BME280;15940;48.734;9.112;2023-03-16T03:09:30;96827.81;;;-0.84;93.50
9525;BME280;15940;48.734;9.112;2023-03-16T03:11:58;96830.81;;;-0.59;93.27
9525;BME280;15940;48.734;9.112;2023-03-16T03:14:25;96831.75;;;-0.45;93.87
9525;BME280;15940;48.734;9.112;2023-03-16T03:16:53;96828.91;;;-0.58;92.24
9525;BME280;15940;48.734;9.112;2023-03-16T03:19:22;96824.22;;;-0.97;91.92
9525;BME280;15940;48.734;9.112;2023-03-16T03:21:50;96838.13;;;-0.63;93.29
9525;BME280;15940;48.734;9.112;2023-03-16T03:24:22;96839.63;;;-0.85;92.52
9525;BME280;15940;48.734;9.112;2023-03-16T03:26:49;96836.91;;;-1.08;92.57
9525;BME280;15940;48.734;9.112;2023-03-16T03:29:17;96829.28;;;-1.06;92.78
9525;BME280;15940;48.734;9.112;2023-03-16T03:31:44;96824.78;;;-1.09;94.21
9525;BME280;15940;48.734;9.112;2023-03-16T03:34:12;96811.84;;;-0.61;94.61
9525;BME280;15940;48.734;9.112;2023-03-16T03:36:40;96809.25;;;-0.88;92.95
9525;BME280;15940;48.734;9.112;2023-03-16T03:39:07;96811.25;;;-0.95;93.49
9525;BME280;15940;48.734;9.112;2023-03-16T03:41:34;96814.66;;;-0.48;94.63
9525;BME280;15940;48.734;9.112;2023-03-16T03:44:01;96814.16;;;-0.63;92.54
9525;BME280;15940;48.734;9.112;2023-03-16T03:46:28;96806.47;;;-0.57;93.22
9525;BME280;15940;48.734;9.112;2023-03-16T03:48:54;96809.44;;;-0.75;92.42
9525;BME280;15940;48.734;9.112;2023-03-16T03:51:26;96809.66;;;-0.66;93.28
9525;BME280;15940;48.734;9.112;2023-03-16T03:53:54;96810.31;;;-0.38;93.47
9525;BME280;15940;48.734;9.112;2023-03-16T03:56:21;96809.00;;;-0.50;92.16
9525;BME280;15940;48.734;9.112;2023-03-16T03:58:48;96803.81;;;-0.57;92.05
9525;BME280;15940;48.734;9.112;2023-03-16T04:01:15;96803.88;;;-0.37;92.85
9525;BME280;15940;48.734;9.112;2023-03-16T04:03:42;96815.00;;;-0.03;92.15
9525;BME280;15940;48.734;9.112;2023-03-16T04:06:09;96813.38;;;-0.16;91.50
9525;BME280;15940;48.734;9.112;2023-03-16T04:08:36;96815.41;;;-0.04;90.78
9525;BME280;15940;48.734;9.112;2023-03-16T04:11:04;96809.53;;;0.05;90.21
9525;BME280;15940;48.734;9.112;2023-03-16T04:13:31;96813.78;;;0.02;89.78
9525;BME280;15940;48.734;9.112;2023-03-16T04:15:59;96805.78;;;-0.38;87.66
9525;BME280;15940;48.734;9.112;2023-03-16T04:18:27;96805.47;;;-0.43;89.83
9525;BME280;15940;48.734;9.112;2023-03-16T04:20:54;96804.81;;;-0.27;89.37
9525;BME280;15940;48.734;9.112;2023-03-16T04:23:22;96805.84;;;-0.65;88.54
9525;BME280;15940;48.734;9.112;2023-03-16T04:25:50;96804.63;;;-0.60;90.47
9525;BME280;15940;48.734;9.112;2023-03-16T04:28:18;96800.75;;;-0.79;90.31
9525;BME280;15940;48.734;9.112;2023-03-16T04:30:45;96793.97;;;-1.07;89.26
9525;BME280;15940;48.734;9.112;2023-03-16T04:33:12;96797.22;;;-0.96;91.50
9525;BME280;15940;48.734;9.112;2023-03-16T04:35:40;96790.72;;;-1.18;89.82
9525;BME280;15940;48.734;9.112;2023-03-16T04:38:07;96788.63;;;-1.30;90.42
9525;BME280;15940;48.734;9.112;2023-03-16T04:40:35;96791.97;;;-1.53;90.58
9525;BME280;15940;48.734;9.112;2023-03-16T04:43:02;96794.34;;;-1.59;92.38
9525;BME280;15940;48.734;9.112;2023-03-16T04:45:30;96793.22;;;-1.61;91.96
9525;BME280;15940;48.734;9.112;2023-03-16T04:47:58;96792.47;;;-1.08;92.45
9525;BME280;15940;48.734;9.112;2023-03-16T04:50:25;96783.00;;;-1.09;93.46
9525;BME280;15940;48.734;9.112;2023-03-16T04:52:52;96775.47;;;-1.14;92.83
9525;BME280;15940;48.734;9.112;2023-03-16T04:55:19;96785.97;;;-0.80;93.03
9525;BME280;15940;48.734;9.112;2023-03-16T04:57:47;96782.00;;;-0.95;91.82
9525;BME280;15940;48.734;9.112;2023-03-16T05:00:14;96780.44;;;-1.16;92.24
9525;BME280;15940;48.734;9.112;2023-03-16T05:02:45;96783.06;;;-1.12;93.04
9525;BME280;15940;48.734;9.112;2023-03-16T05:05:12;96783.78;;;-0.85;93.17
9525;BME280;15940;48.734;9.112;2023-03-16T05:07:39;96785.78;;;-0.93;92.83
9525;BME280;15940;48.734;9.112;2023-03-16T05:10:08;96784.38;;;-0.77;92.66
9525;BME280;15940;48.734;9.112;2023-03-16T05:12:35;96784.16;;;-0.63;93.29
9525;BME280;15940;48.734;9.112;2023-03-16T05:15:03;96778.38;;;-0.81;91.75
9525;BME280;15940;48.734;9.112;2023-03-16T05:17:30;96773.00;;;-0.78;91.42
9525;BME280;15940;48.734;9.112;2023-03-16T05:19:59;96778.03;;;-0.83;91.17
9525;BME280;15940;48.734;9.112;2023-03-16T05:22:26;96775.56;;;-0.94;91.01
9525;BME280;15940;48.734;9.112;2023-03-16T05:24:52;96778.50;;;-0.89;91.33
9525;BME280;15940;48.734;9.112;2023-03-16T05:27:19;96785.84;;;-0.96;90.78
9525;BME280;15940;48.734;9.112;2023-03-16T05:29:46;96777.56;;;-0.78;91.35
9525;BME280;15940;48.734;9.112;2023-03-16T05:32:13;96777.97;;;-0.80;91.50
9525;BME280;15940;48.734;9.112;2023-03-16T05:34:41;96770.19;;;-0.91;90.27
9525;BME280;15940;48.734;9.112;2023-03-16T05:37:10;96779.91;;;-1.04;90.87
9525;BME280;15940;48.734;9.112;2023-03-16T05:39:38;96780.41;;;-0.89;91.79
9525;BME280;15940;48.734;9.112;2023-03-16T05:42:05;96779.81;;;-0.77;91.33
9525;BME280;15940;48.734;9.112;2023-03-16T05:44:32;96772.16;;;-0.51;93.01
9525;BME280;15940;48.734;9.112;2023-03-16T05:46:59;96775.34;;;-0.37;91.31
9525;BME280;15940;48.734;9.112;2023-03-16T05:49:26;96766.03;;;-0.48;90.07
9525;BME280;15940;48.734;9.112;2023-03-16T05:51:53;96777.00;;;-0.66;89.75
9525;BME280;15940;48.734;9.112;2023-03-16T05:54:22;96771.78;;;-0.73;89.94
9525;BME280;15940;48.734;9.112;2023-03-16T05:56:48;96767.34;;;-0.56;91.16
9525;BME280;15940;48.734;9.112;2023-03-16T05:59:15;96764.59;;;-0.53;90.28
9525;BME280;15940;48.734;9.112;2023-03-16T06:01:43;96761.34;;;-0.41;90.17
9525;BME280;15940;48.734;9.112;2023-03-16T06:04:11;96758.75;;;-0.44;90.22
9525;BME280;15940;48.734;9.112;2023-03-16T06:06:38;96756.50;;;-0.46;89.38
9525;BME280;15940;48.734;9.112;2023-03-16T06:09:05;96758.19;;;-0.55;90.12
9525;BME280;15940;48.734;9.112;2023-03-16T06:11:33;96758.47;;;-0.50;90.54
9525;BME280;15940;48.734;9.112;2023-03-16T06:14:00;96761.66;;;-0.59;89.51
9525;BME280;15940;48.734;9.112;2023-03-16T06:16:27;96768.84;;;-0.55;90.64
9525;BME280;15940;48.734;9.112;2023-03-16T06:18:54;96770.88;;;-0.43;89.89
9525;BME280;15940;48.734;9.112;2023-03-16T06:21:22;96768.31;;;-0.47;89.46
9525;BME280;15940;48.734;9.112;2023-03-16T06:23:49;96765.84;;;-0.38;89.45
9525;BME280;15940;48.734;9.112;2023-03-16T06:26:16;96769.69;;;-0.19;90.59
9525;BME280;15940;48.734;9.112;2023-03-16T06:28:44;96773.75;;;-0.34;88.74
9525;BME280;15940;48.734;9.112;2023-03-16T06:31:11;96771.84;;;-0.34;89.11
9525;BME280;15940;48.734;9.112;2023-03-16T06:33:38;96774.31;;;-0.23;89.60
9525;BME280;15940;48.734;9.112;2023-03-16T06:36:07;96780.59;;;0.07;89.49
9525;BME280;15940;48.734;9.112;2023-03-16T06:38:34;96773.16;;;-0.02;88.66
9525;BME280;15940;48.734;9.112;2023-03-16T06:41:01;96772.34;;;0.01;88.40
9525;BME280;15940;48.734;9.112;2023-03-16T06:43:28;96769.94;;;0.07;88.61
9525;BME280;15940;48.734;9.112;2023-03-16T06:45:56;96770.22;;;0.12;87.82
9525;BME280;15940;48.734;9.112;2023-03-16T06:48:23;96770.66;;;0.27;88.09
9525;BME280;15940;48.734;9.112;2023-03-16T06:50:50;96768.53;;;0.38;87.74
9525;BME280;15940;48.734;9.112;2023-03-16T06:53:17;96775.38;;;0.55;87.36
9525;BME280;15940;48.734;9.112;2023-03-16T06:55:44;96773.09;;;0.90;88.05
9525;BME280;15940;48.734;9.112;2023-03-16T06:58:11;96776.91;;;0.89;85.27
9525;BME280;15940;48.734;9.112;2023-03-16T07:00:38;96772.06;;;0.84;84.77
9525;BME280;15940;48.734;9.112;2023-03-16T07:03:07;96786.31;;;0.94;84.74
9525;BME280;15940;48.734;9.112;2023-03-16T07:05:34;96781.50;;;0.89;84.10
9525;BME280;15940;48.734;9.112;2023-03-16T07:08:01;96784.09;;;0.92;83.89
9525;BME280;15940;48.734;9.112;2023-03-16T07:10:30;96781.69;;;1.14;84.36
9525;BME280;15940;48.734;9.112;2023-03-16T07:12:57;96778.91;;;1.34;83.39
9525;BME280;15940;48.734;9.112;2023-03-16T07:15:24;96787.66;;;1.18;82.56
9525;BME280;15940;48.734;9.112;2023-03-16T07:17:51;96789.53;;;1.50;83.21
9525;BME280;15940;48.734;9.112;2023-03-16T07:20:19;96780.84;;;1.62;82.89
9525;BME280;15940;48.734;9.112;2023-03-16T07:22:46;96789.50;;;1.95;83.70
9525;BME280;15940;48.734;9.112;2023-03-16T07:25:13;96789.03;;;2.26;81.90
9525;BME280;15940;48.734;9.112;2023-03-16T07:27:40;96793.44;;;2.20;79.33
9525;BME280;15940;48.734;9.112;2023-03-16T07:30:11;96795.81;;;2.43;79.64
9525;BME280;15940;48.734;9.112;2023-03-16T07:32:39;96794.97;;;2.72;78.79
9525;BME280;15940;48.734;9.112;2023-03-16T07:35:07;96789.81;;;3.03;78.57
9525;BME280;15940;48.734;9.112;2023-03-16T07:37:35;96791.56;;;3.44;77.72
9525;BME280;15940;48.734;9.112;2023-03-16T07:40:03;96799.06;;;3.36;75.66
9525;BME280;15940;48.734;9.112;2023-03-16T07:42:33;96789.25;;;3.90;75.00
9525;BME280;15940;48.734;9.112;2023-03-16T07:45:00;96786.53;;;4.34;72.78
9525;BME280;15940;48.734;9.112;2023-03-16T07:47:27;96795.97;;;5.19;69.93
9525;BME280;15940;48.734;9.112;2023-03-16T07:49:55;96795.41;;;5.33;69.79
9525;BME280;15940;48.734;9.112;2023-03-16T07:52:22;96794.47;;;5.18;67.60
9525;BME280;15940;48.734;9.112;2023-03-16T07:54:50;96795.56;;;4.80;69.56
9525;BME280;15940;48.734;9.112;2023-03-16T07:57:17;96787.66;;;4.76;68.72
9525;BME280;15940;48.734;9.112;2023-03-16T07:59:44;96792.41;;;4.72;71.02
9525;BME280;15940;48.734;9.112;2023-03-16T08:02:13;96793.88;;;5.13;69.95
9525;BME280;15940;48.734;9.112;2023-03-16T08:04:41;96795.53;;;5.20;68.18
9525;BME280;15940;48.734;9.112;2023-03-16T08:07:08;96793.38;;;4.97;69.36
9525;BME280;15940;48.734;9.112;2023-03-16T08:09:35;96790.84;;;4.93;68.57
9525;BME280;15940;48.734;9.112;2023-03-16T08:12:05;96786.09;;;5.06;68.76
9525;BME280;15940;48.734;9.112;2023-03-16T08:14:32;96793.53;;;4.93;67.82
9525;BME280;15940;48.734;9.112;2023-03-16T08:17:00;96795.53;;;5.20;68.31
9525;BME280;15940;48.734;9.112;2023-03-16T08:19:27;96799.72;;;5.21;69.55
9525;BME280;15940;48.734;9.112;2023-03-16T08:21:54;96794.09;;;5.47;67.80
9525;BME280;15940;48.734;9.112;2023-03-16T08:24:22;96790.69;;;5.64;67.99
9525;BME280;15940;48.734;9.112;2023-03-16T08:26:49;96794.41;;;6.04;66.75
9525;BME280;15940;48.734;9.112;2023-03-16T08:29:17;96782.19;;;6.63;65.26
9525;BME280;15940;48.734;9.112;2023-03-16T08:31:45;96788.75;;;7.04;63.77
9525;BME280;15940;48.734;9.112;2023-03-16T08:34:12;96782.50;;;6.98;62.65
9525;BME280;15940;48.734;9.112;2023-03-16T08:36:40;96780.06;;;6.76;61.82
9525;BME280;15940;48.734;9.112;2023-03-16T08:39:08;96780.38;;;7.02;63.46
9525;BME280;15940;48.734;9.112;2023-03-16T08:41:35;96776.91;;;7.35;62.70
9525;BME280;15940;48.734;9.112;2023-03-16T08:44:02;96764.69;;;7.49;61.46
9525;BME280;15940;48.734;9.112;2023-03-16T08:46:31;96775.41;;;7.10;62.60
9525;BME280;15940;48.734;9.112;2023-03-16T08:48:59;96767.63;;;7.12;61.21
9525;BME280;15940;48.734;9.112;2023-03-16T08:51:25;96759.72;;;7.32;61.53
9525;BME280;15940;48.734;9.112;2023-03-16T08:53:54;96771.53;;;7.73;61.77
9525;BME280;15940;48.734;9.112;2023-03-16T08:56:21;96771.28;;;7.86;60.62
9525;BME280;15940;48.734;9.112;2023-03-16T08:58:48;96758.13;;;8.18;60.14
9525;BME280;15940;48.734;9.112;2023-03-16T09:01:17;96759.47;;;8.87;59.44
9525;BME280;15940;48.734;9.112;2023-03-16T09:03:46;96755.13;;;8.60;57.24
9525;BME280;15940;48.734;9.112;2023-03-16T09:06:15;96761.75;;;8.29;58.45
9525;BME280;15940;48.734;9.112;2023-03-16T09:08:42;96762.28;;;8.04;58.39
9525;BME280;15940;48.734;9.112;2023-03-16T09:11:13;96769.78;;;8.53;58.38
9525;BME280;15940;48.734;9.112;2023-03-16T09:13:41;96773.38;;;8.65;57.61
9525;BME280;15940;48.734;9.112;2023-03-16T09:16:10;96765.69;;;8.93;56.70
9525;BME280;15940;48.734;9.112;2023-03-16T09:18:38;96758.38;;;9.34;57.28
9525;BME280;15940;48.734;9.112;2023-03-16T09:21:09;96745.19;;;9.42;55.87
9525;BME280;15940;48.734;9.112;2023-03-16T09:23:38;96758.59;;;9.31;55.34
9525;BME280;15940;48.734;9.112;2023-03-16T09:26:07;96748.69;;;9.28;56.20
9525;BME280;15940;48.734;9.112;2023-03-16T09:28:35;96744.47;;;9.88;56.28
9525;BME280;15940;48.734;9.112;2023-03-16T09:31:05;96745.31;;;9.99;55.47
9525;BME280;15940;48.734;9.112;2023-03-16T09:33:34;96747.13;;;9.82;54.87
9525;BME280;15940;48.734;9.112;2023-03-16T09:36:02;96748.06;;;9.79;53.24
9525;BME280;15940;48.734;9.112;2023-03-16T09:38:30;96756.56;;;9.92;54.84
9525;BME280;15940;48.734;9.112;2023-03-16T09:40:59;96745.69;;;10.39;53.08
9525;BME280;15940;48.734;9.112;2023-03-16T09:43:47;96744.50;;;10.77;52.16
9525;BME280;15940;48.734;9.112;2023-03-16T09:46:25;96732.47;;;10.83;49.19
9525;BME280;15940;48.734;9.112;2023-03-16T09:48:54;96740.19;;;10.27;51.77
9525;BME280;15940;48.734;9.112;2023-03-16T09:51:34;96727.88;;;10.58;54.03
9525;BME280;15940;48.734;9.112;2023-03-16T09:54:14;96722.31;;;10.36;52.22
9525;BME280;15940;48.734;9.112;2023-03-16T09:56:43;96718.50;;;9.76;53.74
9525;BME280;15940;48.734;9.112;2023-03-16T09:59:13;96719.25;;;9.50;53.55
9525;BME280;15940;48.734;9.112;2023-03-16T10:01:59;96720.44;;;9.08;56.51
9525;BME280;15940;48.734;9.112;2023-03-16T10:04:40;96727.13;;;8.93;55.88
9525;BME280;15940;48.734;9.112;2023-03-16T10:07:21;96728.41;;;8.97;55.97
9525;BME280;15940;48.734;9.112;2023-03-16T10:09:56;96721.19;;;9.09;55.43
9525;BME280;15940;48.734;9.112;2023-03-16T10:12:32;96722.84;;;8.86;54.51
9525;BME280;15940;48.734;9.112;2023-03-16T10:15:07;96727.88;;;8.93;54.76
9525;BME280;15940;48.734;9.112;2023-03-16T10:17:39;96721.81;;;9.39;53.66
9525;BME280;15940;48.734;9.112;2023-03-16T10:20:16;96731.28;;;9.49;54.40
9525;BME280;15940;48.734;9.112;2023-03-16T10:22:45;96733.41;;;9.65;54.32
9525;BME280;15940;48.734;9.112;2023-03-16T10:25:21;96735.47;;;9.30;53.72
9525;BME280;15940;48.734;9.112;2023-03-16T10:27:49;96710.06;;;9.42;54.81
9525;BME280;15940;48.734;9.112;2023-03-16T10:30:23;96716.59;;;9.56;55.86
9525;BME280;15940;48.734;9.112;2023-03-16T10:32:53;96720.03;;;9.77;54.53
9525;BME280;15940;48.734;9.112;2023-03-16T10:35:34;96718.06;;;9.77;54.96
9525;BME280;15940;48.734;9.112;2023-03-16T10:38:03;96718.78;;;9.78;54.18
9525;BME280;15940;48.734;9.112;2023-03-16T10:40:37;96711.78;;;10.17;51.93
9525;BME280;15940;48.734;9.112;2023-03-16T10:43:06;96710.00;;;10.40;49.93
9525;BME280;15940;48.734;9.112;2023-03-16T10:45:35;96710.50;;;10.39;50.79
9525;BME280;15940;48.734;9.112;2023-03-16T10:48:07;96702.31;;;10.65;51.41
9525;BME280;15940;48.734;9.112;2023-03-16T10:50:34;96702.53;;;11.04;49.94
9525;BME280;15940;48.734;9.112;2023-03-16T10:53:02;96694.44;;;11.15;49.67
9525;BME280;15940;48.734;9.112;2023-03-16T10:55:31;96686.03;;;11.07;49.58
9525;BME280;15940;48.734;9.112;2023-03-16T10:58:08;96682.91;;;10.72;49.02
9525;BME280;15940;48.734;9.112;2023-03-16T11:00:40;96680.84;;;10.55;48.17
9525;BME280;15940;48.734;9.112;2023-03-16T11:03:20;96686.63;;;10.80;51.63
9525;BME280;15940;48.734;9.112;2023-03-16T11:05:57;96677.16;;;11.01;48.36
9525;BME280;15940;48.734;9.112;2023-03-16T11:08:26;96681.00;;;10.83;48.99
9525;BME280;15940;48.734;9.112;2023-03-16T11:10:57;96687.97;;;10.96;49.58
9525;BME280;15940;48.734;9.112;2023-03-16T11:13:32;96689.56;;;11.25;48.28
9525;BME280;15940;48.734;9.112;2023-03-16T11:16:04;96687.78;;;11.16;47.51
9525;BME280;15940;48.734;9.112;2023-03-16T11:18:35;96681.09;;;11.06;48.47
9525;BME280;15940;48.734;9.112;2023-03-16T11:21:11;96680.66;;;11.13;49.13
9525;BME280;15940;48.734;9.112;2023-03-16T11:23:47;96679.81;;;10.96;48.25
9525;BME280;15940;48.734;9.112;2023-03-16T11:26:21;96667.06;;;11.02;48.10
9525;BME280;15940;48.734;9.112;2023-03-16T11:28:58;96672.22;;;11.05;49.50
9525;BME280;15940;48.734;9.112;2023-03-16T11:31:38;96674.94;;;11.00;47.82
9525;BME280;15940;48.734;9.112;2023-03-16T11:34:13;96674.72;;;11.09;48.00
9525;BME280;15940;48.734;9.112;2023-03-16T11:36:49;96671.06;;;11.23;46.88
9525;BME280;15940;48.734;9.112;2023-03-16T11:39:29;96661.53;;;11.39;47.91
9525;BME280;15940;48.734;9.112;2023-03-16T11:42:15;96663.97;;;11.31;48.84
9525;BME280;15940;48.734;9.112;2023-03-16T11:44:54;96668.34;;;11.18;46.90
9525;BME280;15940;48.734;9.112;2023-03-16T11:47:38;96660.78;;;11.44;45.84
9525;BME280;15940;48.734;9.112;2023-03-16T11:50:15;96661.81;;;11.58;44.79
9525;BME280;15940;48.734;9.112;2023-03-16T11:52:51;96656.66;;;11.71;45.73
9525;BME280;15940;48.734;9.112;2023-03-16T11:55:31;96639.94;;;12.06;45.94
9525;BME280;15940;48.734;9.112;2023-03-16T11:58:15;96648.81;;;12.29;44.68
9525;BME280;15940;48.734;9.112;2023-03-16T12:00:52;96633.75;;;12.17;45.37
9525;BME280;15940;48.734;9.112;2023-03-16T12:04:01;96639.66;;;11.82;44.80
9525;BME280;15940;48.734;9.112;2023-03-16T12:06:49;96630.50;;;11.57;46.60
9525;BME280;15940;48.734;9.112;2023-03-16T12:09:40;96636.59;;;11.35;46.26
9525;BME280;15940;48.734;9.112;2023-03-16T12:12:28;96618.78;;;11.17;46.85
9525;BME280;15940;48.734;9.112;2023-03-16T12:15:16;96610.84;;;10.97;46.64
9525;BME280;15940;48.734;9.112;2023-03-16T12:17:47;96607.94;;;11.17;46.38
9525;BME280;15940;48.734;9.112;2023-03-16T12:20:20;96611.97;;;11.50;46.27
9525;BME280;15940;48.734;9.112;2023-03-16T12:22:50;96606.59;;;11.78;47.01
9525;BME280;15940;48.734;9.112;2023-03-16T12:25:21;96614.25;;;12.13;44.81
9525;BME280;15940;48.734;9.112;2023-03-16T12:27:52;96617.47;;;11.89;44.18
9525;BME280;15940;48.734;9.112;2023-03-16T12:30:33;96615.75;;;11.80;45.92
9525;BME280;15940;48.734;9.112;2023-03-16T12:33:07;96613.94;;;11.43;44.50
9525;BME280;15940;48.734;9.112;2023-03-16T12:35:43;96616.19;;;11.73;45.47
9525;BME280;15940;48.734;9.112;2023-03-16T12:38:37;96625.06;;;11.57;44.80
9525;BME280;15940;48.734;9.112;2023-03-16T12:41:18;96607.81;;;11.71;45.05
9525;BME280;15940;48.734;9.112;2023-03-16T12:44:10;96604.63;;;12.00;45.17
9525;BME280;15940;48.734;9.112;2023-03-16T12:49:07;96595.00;;;11.99;44.21
9525;BME280;15940;48.734;9.112;2023-03-16T12:51:36;96596.50;;;12.23;44.63
9525;BME280;15940;48.734;9.112;2023-03-16T12:54:04;96586.06;;;12.38;44.89
9525;BME280;15940;48.734;9.112;2023-03-16T12:56:34;96586.56;;;12.37;42.36
9525;BME280;15940;48.734;9.112;2023-03-16T12:59:04;96584.38;;;12.24;43.62
9525;BME280;15940;48.734;9.112;2023-03-16T13:01:38;96580.91;;;12.35;46.08
9525;BME280;15940;48.734;9.112;2023-03-16T13:04:12;96575.41;;;12.57;41.76
9525;BME280;15940;48.734;9.112;2023-03-16T13:06:43;96569.00;;;12.54;41.72
9525;BME280;15940;48.734;9.112;2023-03-16T13:09:17;96582.31;;;12.64;41.75
9525;BME280;15940;48.734;9.112;2023-03-16T13:11:48;96571.44;;;12.58;42.94
9525;BME280;15940;48.734;9.112;2023-03-16T13:14:33;96577.84;;;12.72;40.15
9525;BME280;15940;48.734;9.112;2023-03-16T13:17:05;96581.97;;;12.90;39.98
9525;BME280;15940;48.734;9.112;2023-03-16T13:20:23;96580.09;;;12.62;39.37
9525;BME280;15940;48.734;9.112;2023-03-16T13:23:08;96581.06;;;12.65;40.77
9525;BME280;15940;48.734;9.112;2023-03-16T13:25:41;96577.94;;;12.27;42.42
9525;BME280;15940;48.734;9.112;2023-03-16T13:28:12;96570.53;;;12.22;39.42
9525;BME280;15940;48.734;9.112;2023-03-16T13:30:45;96576.91;;;12.52;38.52
9525;BME280;15940;48.734;9.112;2023-03-16T13:33:18;96568.22;;;12.65;39.58
9525;BME280;15940;48.734;9.112;2023-03-16T13:35:49;96559.28;;;12.76;39.74